Date,TemperatureHighF,TemperatureAvgF,TemperatureLowF,DewpointHighF,DewpointAvgF,DewpointLowF,HumidityHigh,HumidityAvg,HumidityLow,PressureMaxIn,PressureMinIn,WindSpeedMaxMPH,WindSpeedAvgMPH,GustSpeedMaxMPH,PrecipitationSumIn
2013-1-1,37,32,24,36,30,23,98,96,92,30.17,29.94,6,3,0,0.00
2013-1-2,35,26,20,26,22,19,95,83,57,30.21,30.12,4,1,0,0.00
2013-1-3,42,31,21,32,25,19,95,80,53,30.37,30.20,4,1,0,0.00
2013-1-4,47,34,21,29,24,19,94,71,42,30.40,30.26,5,1,0,0.00
2013-1-5,43,37,29,35,30,23,92,78,69,30.26,30.09,7,2,0,0.00
2013-1-6,46,35,26,33,25,20,92,71,40,30.29,30.15,7,3,0,0.00
2013-1-7,52,36,22,31,24,18,90,66,38,30.27,30.04,6,2,0,0.00
2013-1-8,58,42,29,46,35,23,96,76,54,30.11,29.95,6,1,0,0.00
2013-1-9,54,50,47,47,44,39,98,82,62,30.23,30.10,10,4,0,0.00
2013-1-10,59,50,46,56,47,40,95,89,65,30.10,29.69,9,5,0,0.00
2013-1-11,66,55,44,48,46,42,95,74,49,29.77,29.61,9,5,0,0.00
2013-1-12,58,44,29,52,38,27,94,81,49,29.84,29.67,9,4,0,0.00
2013-1-13,29,23,17,27,20,14,93,87,79,30.29,29.84,4,0,0,0.00
2013-1-14,33,23,16,18,16,13,91,74,50,30.42,30.27,6,2,0,0.00
2013-1-15,34,26,18,23,18,14,88,74,43,30.27,30.10,5,2,0,0.00
2013-1-16,43,29,17,23,19,15,93,70,40,30.14,30.04,6,1,0,0.00
2013-1-17,47,36,26,34,27,20,85,70,47,30.41,30.11,7,3,0,0.00
2013-1-18,56,39,24,33,28,22,93,67,35,30.43,30.13,8,3,0,0.00
2013-1-19,62,49,40,38,34,28,76,57,40,30.13,29.97,9,3,0,0.00
2013-1-20,61,46,32,37,30,19,82,57,37,30.16,30.01,7,2,0,0.00
2013-1-21,39,29,22,21,17,14,72,60,41,30.29,30.16,7,3,0,0.00
2013-1-22,47,32,21,27,21,15,81,65,44,30.25,30.14,5,1,0,0.00
2013-1-23,62,43,26,44,34,22,88,72,51,30.18,30.05,7,2,0,0.00
2013-1-24,44,38,35,35,24,18,70,56,44,30.21,30.01,7,5,0,0.00
2013-1-25,49,38,30,35,31,26,96,77,52,30.16,30.02,4,1,0,0.00
2013-1-26,61,46,35,30,26,21,76,50,23,30.18,30.03,6,2,0,0.00
2013-1-27,60,53,46,56,47,30,90,81,51,30.03,29.80,9,5,0,0.00
2013-1-28,72,66,59,62,60,56,90,83,71,29.84,29.67,10,7,0,0.00
2013-1-29,68,60,46,63,57,45,97,89,80,29.68,29.33,12,5,0,0.00
2013-1-30,46,33,25,45,30,21,97,87,77,29.97,29.36,14,8,0,0.00
2013-1-31,46,33,20,31,23,11,90,69,55,30.36,29.97,10,5,0,0.00